Time;durP1;ratioP1;P1;durP2;ratioP2;P2;SDS_P1;SDS_P2;PMS_P1;PMS_P2;Temp;Humidity;BMP_temperature;BMP_pressure;BME280_temperature;BME280_humidity;BME280_pressure;Samples;Min_cycle;Max_cycle;Signal;HPM_P1;HPM_P2
2022/04/02 00:01:47;;;;;;;0.10;0.10;;;2.80;99.90;;;;;;4974197;28;20027;-75
2022/04/02 00:04:13;;;;;;;0.00;0.00;;;2.80;99.90;;;;;;4973711;28;20394;-75
2022/04/02 00:06:38;;;;;;;0.00;0.00;;;2.80;99.90;;;;;;4974217;28;20054;-75
2022/04/02 00:09:04;;;;;;;0.00;0.00;;;2.80;99.90;;;;;;4974342;28;20163;-77
2022/04/02 00:11:33;;;;;;;0.00;0.00;;;2.80;99.90;;;;;;4980329;28;20027;-76
2022/04/02 00:13:59;;;;;;;0.05;0.05;;;2.80;99.90;;;;;;4977857;28;20062;-75
2022/04/02 00:16:25;;;;;;;0.00;0.00;;;2.80;99.90;;;;;;4978020;28;20058;-75
2022/04/02 00:18:51;;;;;;;0.10;0.10;;;2.80;99.90;;;;;;4977180;28;20081;-76
2022/04/02 00:21:17;;;;;;;0.00;0.00;;;2.80;99.90;;;;;;4977849;28;20031;-76
2022/04/02 00:23:46;;;;;;;0.32;0.32;;;2.80;99.90;;;;;;4977631;28;20027;-76
2022/04/02 00:26:21;;;;;;;0.13;0.13;;;2.80;99.90;;;;;;4977481;28;20022;-76
2022/04/02 00:28:49;;;;;;;0.00;0.00;;;2.80;99.90;;;;;;4978971;28;20026;-75
2022/04/02 00:31:16;;;;;;;0.00;0.00;;;2.80;99.90;;;;;;4979043;28;20030;-76
2022/04/02 00:33:44;;;;;;;0.00;0.00;;;2.70;99.90;;;;;;4975908;28;20027;-75
2022/04/02 00:36:11;;;;;;;0.30;0.30;;;2.70;99.90;;;;;;4976044;28;20026;-76
2022/04/02 00:38:39;;;;;;;0.00;0.00;;;2.70;99.90;;;;;;4977151;28;20038;-75
2022/04/02 00:41:05;;;;;;;0.00;0.00;;;2.70;99.90;;;;;;4972862;28;20038;-76
2022/04/02 00:43:33;;;;;;;0.15;0.15;;;2.60;99.90;;;;;;4957809;28;20027;-76
2022/04/02 00:46:04;;;;;;;0.00;0.00;;;2.60;99.90;;;;;;4957981;28;20043;-75
2022/04/02 00:48:30;;;;;;;0.17;0.17;;;2.60;99.90;;;;;;4957986;28;20034;-76
2022/04/02 00:50:58;;;;;;;0.28;0.28;;;2.60;99.90;;;;;;4957995;28;20394;-76
2022/04/02 00:53:36;;;;;;;0.00;0.00;;;2.50;99.90;;;;;;4974624;28;20118;-76
2022/04/02 00:56:03;;;;;;;0.00;0.00;;;2.60;99.90;;;;;;4976720;28;20086;-76
2022/04/02 00:58:29;;;;;;;0.10;0.10;;;2.50;99.90;;;;;;4977062;28;20026;-76
2022/04/02 01:00:55;;;;;;;0.22;0.20;;;2.50;99.90;;;;;;4976635;28;20105;-76
2022/04/02 01:03:21;;;;;;;0.20;0.20;;;2.50;99.90;;;;;;4976579;28;20037;-75
2022/04/02 01:05:47;;;;;;;0.10;0.10;;;2.50;99.90;;;;;;4977216;28;20022;-74
2022/04/02 01:08:13;;;;;;;0.00;0.00;;;2.50;99.90;;;;;;4976799;28;20027;-75
2022/04/02 01:10:39;;;;;;;6.93;1.27;;;2.50;99.90;;;;;;4976569;28;20097;-76
2022/04/02 01:13:05;;;;;;;0.10;0.10;;;2.50;99.90;;;;;;4976185;28;20023;-75
2022/04/02 01:15:31;;;;;;;0.65;0.65;;;2.50;99.90;;;;;;4976765;28;20494;-76
2022/04/02 01:17:57;;;;;;;0.20;0.20;;;2.50;99.90;;;;;;4977787;28;20031;-75
2022/04/02 01:20:24;;;;;;;0.00;0.00;;;2.50;99.90;;;;;;4977357;28;20039;-76
2022/04/02 01:22:50;;;;;;;0.15;0.15;;;2.40;99.90;;;;;;4976422;28;20041;-75
2022/04/02 01:25:16;;;;;;;0.10;0.10;;;2.50;99.90;;;;;;4975321;28;20055;-76
2022/04/02 01:27:46;;;;;;;0.20;0.20;;;2.60;99.90;;;;;;4976425;28;20030;-76
2022/04/02 01:30:14;;;;;;;0.00;0.00;;;2.50;99.90;;;;;;4975142;28;20171;-75
2022/04/02 01:32:43;;;;;;;0.75;0.75;;;2.60;99.90;;;;;;4976331;28;20157;-76
2022/04/02 01:35:10;;;;;;;0.10;0.10;;;2.60;99.90;;;;;;4976338;28;20089;-75
2022/04/02 01:37:38;;;;;;;0.10;0.10;;;2.60;99.90;;;;;;4976048;28;20038;-76
2022/04/02 01:40:05;;;;;;;0.08;0.08;;;2.60;99.90;;;;;;4976354;28;20399;-75
2022/04/02 01:42:31;;;;;;;0.10;0.10;;;2.60;99.90;;;;;;4976067;28;20033;-76
2022/04/02 01:44:57;;;;;;;0.00;0.00;;;2.60;99.90;;;;;;4979579;28;20062;-74
2022/04/02 01:47:23;;;;;;;0.00;0.00;;;2.60;99.90;;;;;;4975938;28;20498;-75
2022/04/02 01:49:49;;;;;;;0.00;0.00;;;2.60;99.90;;;;;;4975658;28;20094;-75
2022/04/02 01:52:16;;;;;;;0.00;0.00;;;2.60;99.90;;;;;;4974995;28;20034;-76
2022/04/02 01:54:43;;;;;;;0.10;0.10;;;2.50;99.90;;;;;;4975272;28;20450;-76
2022/04/02 01:57:09;;;;;;;0.00;0.00;;;2.50;99.90;;;;;;4976032;28;20390;-76
2022/04/02 01:59:34;;;;;;;0.22;0.22;;;2.60;99.90;;;;;;4975860;28;20106;-74
2022/04/02 02:02:00;;;;;;;0.10;0.10;;;2.60;99.90;;;;;;4976033;28;20037;-75
2022/04/02 02:04:27;;;;;;;0.00;0.00;;;2.60;99.90;;;;;;4975725;28;20030;-76
2022/04/02 02:06:52;;;;;;;0.68;0.35;;;2.60;99.90;;;;;;4974611;28;20027;-75
2022/04/02 02:09:18;;;;;;;1.95;0.52;;;2.60;99.90;;;;;;4978606;28;20387;-77
2022/04/02 02:11:44;;;;;;;0.00;0.00;;;2.60;99.90;;;;;;4977917;28;20034;-75
2022/04/02 02:14:09;;;;;;;0.00;0.00;;;2.60;99.90;;;;;;4975575;28;20114;-75
2022/04/02 02:16:35;;;;;;;0.20;0.20;;;2.60;99.90;;;;;;4974443;28;20038;-76
2022/04/02 02:19:01;;;;;;;0.00;0.00;;;2.60;99.90;;;;;;4969227;28;20399;-76
2022/04/02 02:21:26;;;;;;;0.10;0.10;;;2.60;99.90;;;;;;4956146;28;20035;-75
2022/04/02 02:23:52;;;;;;;0.00;0.00;;;2.60;99.90;;;;;;4956155;28;20026;-76
2022/04/02 02:26:18;;;;;;;0.00;0.00;;;2.50;99.90;;;;;;4956014;28;20031;-75
2022/04/02 02:28:44;;;;;;;0.00;0.00;;;2.60;99.90;;;;;;4955495;28;20020;-76
2022/04/02 02:31:09;;;;;;;0.00;0.00;;;2.60;99.90;;;;;;4956219;28;20023;-76
2022/04/02 02:36:20;;;;;;;0.00;0.00;;;2.60;99.90;;;;;;4956607;29;20094;-74
2022/04/02 02:38:46;;;;;;;0.00;0.00;;;2.60;99.90;;;;;;4975322;28;20026;-75
2022/04/02 02:41:12;;;;;;;0.00;0.00;;;2.60;99.90;;;;;;4974865;28;20023;-74
2022/04/02 02:43:38;;;;;;;0.00;0.00;;;2.60;99.90;;;;;;4975483;28;20118;-76
2022/04/02 02:46:05;;;;;;;0.17;0.17;;;2.60;99.90;;;;;;4975333;28;20110;-76
2022/04/02 02:48:31;;;;;;;1.48;0.70;;;2.60;99.90;;;;;;4974730;28;20109;-74
2022/04/02 02:50:57;;;;;;;0.00;0.00;;;2.60;99.90;;;;;;4973588;28;20476;-76
2022/04/02 02:53:22;;;;;;;0.00;0.00;;;2.60;99.90;;;;;;4974609;28;20029;-75
2022/04/02 02:55:49;;;;;;;0.13;0.10;;;2.50;99.90;;;;;;4974097;28;20076;-74
2022/04/02 02:58:15;;;;;;;0.00;0.00;;;2.60;99.90;;;;;;4974803;28;20050;-75
2022/04/02 03:00:43;;;;;;;0.90;0.38;;;2.50;99.90;;;;;;4974833;28;20070;-76
2022/04/02 03:03:09;;;;;;;0.00;0.00;;;2.50;99.90;;;;;;4977585;28;20014;-73
2022/04/02 03:05:35;;;;;;;0.00;0.00;;;2.50;99.90;;;;;;4975801;28;20019;-76
2022/04/02 03:08:02;;;;;;;0.90;0.70;;;2.60;99.90;;;;;;4974622;28;20023;-76
2022/04/02 03:10:28;;;;;;;0.00;0.00;;;2.60;99.90;;;;;;4974622;28;20023;-75
2022/04/02 03:12:57;;;;;;;0.00;0.00;;;2.60;99.90;;;;;;4974686;28;20149;-75
2022/04/02 03:15:24;;;;;;;0.00;0.00;;;2.60;99.90;;;;;;4974681;28;20034;-76
2022/04/02 03:17:51;;;;;;;0.00;0.00;;;2.60;99.90;;;;;;4974609;28;20027;-75
2022/04/02 03:20:18;;;;;;;0.20;0.20;;;2.50;99.90;;;;;;4958147;28;20494;-74
2022/04/02 03:22:45;;;;;;;0.00;0.00;;;2.50;99.90;;;;;;4955258;29;20517;-76
2022/04/02 03:25:13;;;;;;;0.00;0.00;;;2.50;99.90;;;;;;4955216;28;20028;-76
2022/04/02 03:27:40;;;;;;;0.00;0.00;;;2.50;99.90;;;;;;4954837;28;20493;-74
2022/04/02 03:30:11;;;;;;;1.35;1.17;;;2.50;99.90;;;;;;4955257;28;20460;-75
2022/04/02 03:32:38;;;;;;;0.80;0.43;;;2.50;99.90;;;;;;4960448;28;20058;-75
2022/04/02 03:35:05;;;;;;;0.00;0.00;;;2.40;99.90;;;;;;4954840;28;20562;-74
2022/04/02 03:37:33;;;;;;;0.00;0.00;;;2.50;99.90;;;;;;4963381;28;20019;-75
2022/04/02 03:39:59;;;;;;;0.50;0.25;;;2.50;99.90;;;;;;4974236;28;20541;-75
2022/04/02 03:42:25;;;;;;;0.00;0.00;;;2.50;99.90;;;;;;4974567;28;20030;-76
2022/04/02 03:44:51;;;;;;;0.03;0.03;;;2.50;99.90;;;;;;4974204;28;20410;-76
2022/04/02 03:47:22;;;;;;;0.00;0.00;;;2.50;99.90;;;;;;4974214;28;20023;-74
2022/04/02 03:49:49;;;;;;;0.00;0.00;;;2.50;99.90;;;;;;4973848;28;20039;-76
2022/04/02 03:52:15;;;;;;;0.13;0.13;;;2.50;99.90;;;;;;4973932;28;20023;-76
2022/04/02 03:54:41;;;;;;;0.00;0.00;;;2.50;99.90;;;;;;4972440;28;20076;-75
2022/04/02 03:57:12;;;;;;;0.00;0.00;;;2.50;99.90;;;;;;4973525;28;20031;-74
2022/04/02 03:59:38;;;;;;;0.00;0.00;;;2.50;99.90;;;;;;4973471;28;20027;-76
2022/04/02 04:02:04;;;;;;;1.10;0.30;;;2.50;99.90;;;;;;4973871;28;20030;-75
2022/04/02 04:04:31;;;;;;;0.00;0.00;;;2.50;99.90;;;;;;4973679;28;20030;-76
2022/04/02 04:06:57;;;;;;;0.00;0.00;;;2.50;99.90;;;;;;4986573;28;20019;-75
2022/04/02 04:09:23;;;;;;;0.25;0.25;;;2.50;99.90;;;;;;4973822;28;20023;-74
2022/04/02 04:11:49;;;;;;;0.00;0.00;;;2.50;99.90;;;;;;4973894;28;20023;-75
2022/04/02 04:14:16;;;;;;;0.00;0.00;;;2.40;99.90;;;;;;4973043;28;20046;-74
2022/04/02 04:16:42;;;;;;;0.00;0.00;;;2.40;99.90;;;;;;4974394;28;20077;-76
2022/04/02 04:19:08;;;;;;;0.47;0.47;;;2.50;99.90;;;;;;4966324;28;20028;-75
2022/04/02 04:21:36;;;;;;;0.00;0.00;;;2.40;99.90;;;;;;4954682;28;20566;-75
2022/04/02 04:24:03;;;;;;;0.00;0.00;;;2.40;99.90;;;;;;4954309;28;20035;-75
2022/04/02 04:26:28;;;;;;;3.78;0.68;;;2.40;99.90;;;;;;4954544;28;20043;-74
2022/04/02 04:28:54;;;;;;;0.00;0.00;;;2.40;99.90;;;;;;4954309;28;20074;-75
2022/04/02 04:31:20;;;;;;;0.10;0.10;;;2.30;99.90;;;;;;4954251;28;20024;-75
2022/04/02 04:33:46;;;;;;;0.28;0.22;;;2.30;99.90;;;;;;4954357;28;20482;-76
2022/04/02 04:36:13;;;;;;;0.17;0.17;;;2.30;99.90;;;;;;4954346;28;20118;-75
2022/04/02 04:38:38;;;;;;;0.00;0.00;;;2.30;99.90;;;;;;4971973;28;20033;-75
2022/04/02 04:41:04;;;;;;;0.00;0.00;;;2.30;99.90;;;;;;4974125;28;20035;-75
2022/04/02 04:43:31;;;;;;;0.00;0.00;;;2.20;99.90;;;;;;4982524;28;20158;-76
2022/04/02 04:45:57;;;;;;;0.00;0.00;;;2.20;99.90;;;;;;4973700;28;20027;-75
2022/04/02 04:48:23;;;;;;;0.00;0.00;;;2.20;99.90;;;;;;4972952;28;20035;-76
2022/04/02 04:50:48;;;;;;;0.00;0.00;;;2.20;99.90;;;;;;4973807;28;20486;-76
2022/04/02 04:53:15;;;;;;;1.45;0.55;;;2.20;99.90;;;;;;4973354;28;20036;-75
2022/04/02 04:55:41;;;;;;;0.00;0.00;;;2.20;99.90;;;;;;4973708;28;20059;-76
2022/04/02 04:58:07;;;;;;;0.15;0.15;;;2.20;99.90;;;;;;4977068;28;20105;-75
2022/04/02 05:00:33;;;;;;;0.00;0.00;;;2.20;99.90;;;;;;4976874;28;20118;-75
2022/04/02 05:02:59;;;;;;;0.00;0.00;;;2.20;99.90;;;;;;4976569;28;20478;-74
2022/04/02 05:05:27;;;;;;;0.00;0.00;;;2.20;99.90;;;;;;4977069;28;20113;-74
2022/04/02 05:07:53;;;;;;;0.00;0.00;;;2.30;99.90;;;;;;4976821;28;20453;-76
2022/04/02 05:10:20;;;;;;;0.00;0.00;;;2.30;99.90;;;;;;4976496;28;20022;-76
2022/04/02 05:12:45;;;;;;;0.00;0.00;;;2.30;99.90;;;;;;4976823;28;20026;-76
2022/04/02 05:15:12;;;;;;;0.03;0.03;;;2.30;99.90;;;;;;4976853;28;20441;-74
2022/04/02 05:17:38;;;;;;;0.00;0.00;;;2.30;99.90;;;;;;4976449;28;20541;-75
2022/04/02 05:20:06;;;;;;;0.00;0.00;;;2.30;99.90;;;;;;4976162;28;20109;-76
2022/04/02 05:22:32;;;;;;;0.60;0.43;;;2.20;99.90;;;;;;4975989;28;20455;-76
2022/04/02 05:24:58;;;;;;;0.00;0.00;;;2.20;99.90;;;;;;4976546;28;20102;-75
2022/04/02 05:27:28;;;;;;;0.00;0.00;;;2.20;99.90;;;;;;4976569;28;20030;-75
2022/04/02 05:29:54;;;;;;;0.13;0.13;;;2.20;99.90;;;;;;4976222;28;20030;-75
2022/04/02 05:32:20;;;;;;;0.00;0.00;;;2.10;99.90;;;;;;4976353;28;20030;-74
2022/04/02 05:34:46;;;;;;;0.73;0.50;;;2.10;99.90;;;;;;4976230;28;20019;-75
2022/04/02 05:37:11;;;;;;;0.00;0.00;;;2.10;99.90;;;;;;4970031;28;20034;-75
2022/04/02 05:39:37;;;;;;;0.00;0.00;;;2.10;99.90;;;;;;4956750;28;20031;-74
2022/04/02 05:42:06;;;;;;;0.10;0.10;;;2.10;99.90;;;;;;4956826;28;20399;-74
2022/04/02 05:44:32;;;;;;;0.00;0.00;;;2.00;99.90;;;;;;4956810;28;20071;-76
2022/04/02 05:46:58;;;;;;;0.10;0.10;;;2.00;99.90;;;;;;4971779;28;20059;-76
2022/04/02 05:49:23;;;;;;;0.47;0.47;;;2.00;99.90;;;;;;4956538;28;20077;-76
2022/04/02 05:51:49;;;;;;;0.00;0.00;;;2.00;99.90;;;;;;4961433;28;20026;-75
2022/04/02 05:54:14;;;;;;;0.00;0.00;;;2.00;99.90;;;;;;4975394;28;20047;-74
2022/04/02 05:56:41;;;;;;;0.08;0.08;;;2.10;99.90;;;;;;4973675;28;20031;-76
2022/04/02 05:59:07;;;;;;;0.00;0.00;;;2.10;99.90;;;;;;4975125;28;20027;-76
2022/04/02 06:01:35;;;;;;;0.35;0.35;;;2.10;99.90;;;;;;4975894;28;20034;-76
2022/04/02 06:04:01;;;;;;;2.13;0.47;;;2.10;99.90;;;;;;4975381;28;20031;-75
2022/04/02 06:06:26;;;;;;;0.00;0.00;;;2.10;99.90;;;;;;4975704;28;20109;-74
2022/04/02 06:08:52;;;;;;;0.10;0.10;;;2.20;99.90;;;;;;4975769;28;20027;-75
2022/04/02 06:11:18;;;;;;;2.70;0.80;;;2.20;99.90;;;;;;4975432;28;20031;-74
2022/04/02 06:13:43;;;;;;;0.10;0.10;;;2.20;99.90;;;;;;4974208;28;20031;-76
2022/04/02 06:16:09;;;;;;;0.00;0.00;;;2.30;99.90;;;;;;4975590;28;20098;-75
2022/04/02 06:18:38;;;;;;;0.00;0.00;;;2.30;99.90;;;;;;4975059;28;20046;-75
2022/04/02 06:21:03;;;;;;;0.00;0.00;;;2.30;99.90;;;;;;4975364;28;20062;-74
2022/04/02 06:23:33;;;;;;;0.40;0.40;;;2.40;99.90;;;;;;4975314;28;20031;-75
2022/04/02 06:25:59;;;;;;;0.00;0.00;;;2.40;99.90;;;;;;4975364;28;20026;-75
2022/04/02 06:28:24;;;;;;;9.43;1.27;;;2.40;99.90;;;;;;4975270;28;20398;-75
2022/04/02 06:30:50;;;;;;;0.00;0.00;;;2.40;99.90;;;;;;4975276;28;20027;-75
2022/04/02 06:33:16;;;;;;;0.15;0.15;;;2.50;99.90;;;;;;4974396;28;20040;-74
2022/04/02 06:35:42;;;;;;;0.00;0.00;;;2.50;99.90;;;;;;4975472;28;20049;-76
2022/04/02 06:38:07;;;;;;;0.00;0.00;;;2.50;99.90;;;;;;4973724;28;20027;-74
2022/04/02 06:40:33;;;;;;;0.45;0.45;;;2.60;99.90;;;;;;4974170;28;20111;-76
2022/04/02 06:42:59;;;;;;;0.08;0.08;;;2.60;99.90;;;;;;4975333;28;20034;-75
2022/04/02 06:45:25;;;;;;;0.10;0.10;;;2.70;99.90;;;;;;4974917;28;20398;-75
2022/04/02 06:47:51;;;;;;;0.03;0.03;;;2.80;99.90;;;;;;4974938;28;20027;-76
2022/04/02 06:50:18;;;;;;;0.22;0.22;;;2.80;99.90;;;;;;4974797;28;20034;-75
2022/04/02 06:52:45;;;;;;;0.00;0.00;;;2.90;99.90;;;;;;4974840;28;20034;-76
2022/04/02 06:55:12;;;;;;;0.10;0.10;;;2.90;99.90;;;;;;4974561;28;20146;-76
2022/04/02 06:57:42;;;;;;;0.00;0.00;;;3.00;99.90;;;;;;4974308;28;20101;-76
2022/04/02 07:00:09;;;;;;;0.47;0.47;;;3.00;99.90;;;;;;4973457;28;20418;-75
2022/04/02 07:02:34;;;;;;;0.00;0.00;;;3.10;99.90;;;;;;4974651;28;20027;-75
2022/04/02 07:05:00;;;;;;;0.43;0.43;;;3.20;99.90;;;;;;4974786;28;20026;-76
2022/04/02 07:07:26;;;;;;;0.30;0.30;;;3.20;99.90;;;;;;4974129;28;20059;-75
2022/04/02 07:09:51;;;;;;;0.00;0.00;;;3.30;99.90;;;;;;4974467;28;20027;-74
2022/04/02 07:12:17;;;;;;;0.17;0.17;;;3.30;99.90;;;;;;4973686;28;20364;-76
2022/04/02 07:14:43;;;;;;;0.22;0.22;;;3.40;99.90;;;;;;4974006;28;20026;-76
2022/04/02 07:17:08;;;;;;;0.05;0.05;;;3.50;99.90;;;;;;4973262;28;20035;-76
2022/04/02 07:19:36;;;;;;;0.00;0.00;;;3.60;99.90;;;;;;4973633;28;20027;-76
2022/04/02 07:22:09;;;;;;;2.00;0.15;;;3.70;99.90;;;;;;4955160;28;20023;-75
2022/04/02 07:24:39;;;;;;;;;;;3.80;99.90;;;;;;4955309;28;20118;-74
2022/04/02 07:27:05;;;;;;;0.00;0.00;;;3.90;99.90;;;;;;4955105;29;19911;-76
2022/04/02 07:29:32;;;;;;;0.00;0.00;;;4.00;99.90;;;;;;4954878;28;20034;-76
2022/04/02 07:31:58;;;;;;;0.00;0.00;;;4.10;99.90;;;;;;4954933;28;20019;-76
2022/04/02 07:34:23;;;;;;;0.40;0.40;;;4.20;99.90;;;;;;4954708;28;20027;-76
2022/04/02 07:37:28;;;;;;;4.72;1.27;;;4.40;99.90;;;;;;4958039;28;20056;-76
2022/04/02 07:40:03;;;;;;;0.10;0.08;;;4.50;99.90;;;;;;4958738;28;20043;-75
2022/04/02 07:42:55;;;;;;;0.00;0.00;;;4.60;99.90;;;;;;4972098;28;20031;-75
2022/04/02 07:45:32;;;;;;;0.70;0.28;;;4.80;99.90;;;;;;4972927;28;20031;-75
2022/04/02 07:47:58;;;;;;;0.03;0.03;;;5.00;99.90;;;;;;4973788;28;20400;-75
2022/04/02 07:50:26;;;;;;;0.22;0.22;;;5.10;99.90;;;;;;4974405;28;20030;-76
2022/04/02 07:52:54;;;;;;;0.88;0.80;;;6.00;99.90;;;;;;4973955;28;20042;-73
2022/04/02 07:55:21;;;;;;;0.00;0.00;;;9.10;99.90;;;;;;4973746;28;20501;-73
2022/04/02 07:57:49;;;;;;;0.68;0.63;;;11.20;99.90;;;;;;4973464;28;20034;-75
2022/04/02 08:00:17;;;;;;;0.00;0.00;;;13.20;96.60;;;;;;4973458;28;20023;-74
2022/04/02 08:02:45;;;;;;;0.30;0.30;;;14.30;94.40;;;;;;4973740;28;20019;-75
2022/04/02 08:05:22;;;;;;;0.10;0.10;;;15.10;92.20;;;;;;4974166;28;20102;-73
2022/04/02 08:07:57;;;;;;;0.28;0.28;;;15.90;90.60;;;;;;4976386;28;20049;-74
2022/04/02 08:10:25;;;;;;;0.60;0.50;;;16.20;90.10;;;;;;4972223;28;20030;-75
2022/04/02 08:12:52;;;;;;;0.10;0.10;;;16.70;87.00;;;;;;4973894;28;20023;-74
2022/04/02 08:15:19;;;;;;;1.75;0.57;;;16.90;86.30;;;;;;4973962;28;20163;-74
2022/04/02 08:17:47;;;;;;;0.13;0.13;;;16.80;86.20;;;;;;4973199;28;20062;-74
2022/04/02 08:20:16;;;;;;;0.17;0.15;;;17.40;84.90;;;;;;4968349;28;20027;-74
2022/04/02 08:22:43;;;;;;;0.38;0.38;;;17.90;83.10;;;;;;4954749;28;20031;-74
2022/04/02 08:25:09;;;;;;;0.08;0.08;;;17.70;81.50;;;;;;4954575;28;20388;-75
2022/04/02 08:28:18;;;;;;;0.40;0.15;;;18.10;81.10;;;;;;4954376;29;20033;-75
2022/04/02 08:31:04;;;;;;;0.43;0.20;;;17.90;81.10;;;;;;4972949;28;20065;-75
2022/04/02 08:33:48;;;;;;;8.63;0.88;;;18.40;79.50;;;;;;4974960;28;20042;-75
2022/04/02 08:36:38;;;;;;;0.15;0.13;;;19.30;79.30;;;;;;4975360;28;20121;-75
2022/04/02 08:39:15;;;;;;;0.55;0.30;;;20.00;76.90;;;;;;4994570;28;20061;-75
2022/04/02 08:42:08;;;;;;;0.10;0.10;;;19.90;75.70;;;;;;4994817;28;20403;-74
2022/04/02 08:44:36;;;;;;;;;;;18.00;76.90;;;;;;5000461;28;20049;-74
2022/04/02 08:47:31;;;;;;;0.10;0.10;;;16.40;80.40;;;;;;4996156;28;20365;-75
2022/04/02 08:50:07;;;;;;;2.35;0.90;;;17.60;78.80;;;;;;4991099;28;20034;-76
2022/04/02 08:53:07;;;;;;;1.10;0.57;;;17.90;76.30;;;;;;4993632;28;20026;-74
2022/04/02 08:55:35;;;;;;;3.83;1.55;;;19.20;75.50;;;;;;4994111;28;20045;-75
2022/04/02 08:58:07;;;;;;;0.20;0.20;;;19.60;75.70;;;;;;4993806;28;20564;-75
2022/04/02 09:00:39;;;;;;;0.25;0.20;;;20.40;74.50;;;;;;4992284;28;20118;-76
2022/04/02 09:03:07;;;;;;;0.10;0.10;;;19.40;73.80;;;;;;4975279;28;20126;-76
2022/04/02 09:05:48;;;;;;;0.30;0.30;;;19.90;74.00;;;;;;4977193;28;20375;-75
2022/04/02 09:08:38;;;;;;;0.30;0.30;;;20.70;71.80;;;;;;4976600;28;20038;-75
2022/04/02 09:11:38;;;;;;;1.15;0.40;;;20.10;72.60;;;;;;4976871;28;20093;-75
2022/04/02 09:14:25;;;;;;;0.38;0.30;;;20.40;69.70;;;;;;4964992;28;20043;-75
2022/04/02 09:16:54;;;;;;;0.15;0.15;;;20.10;71.30;;;;;;4976979;28;20027;-76
2022/04/02 09:19:30;;;;;;;0.10;0.10;;;20.30;71.50;;;;;;4976196;28;20077;-75
2022/04/02 09:21:57;;;;;;;1.95;1.10;;;20.10;70.60;;;;;;4976356;28;20157;-76
2022/04/02 09:24:47;;;;;;;0.20;0.20;;;21.20;70.10;;;;;;4976369;28;20110;-75
2022/04/02 09:27:34;;;;;;;5.05;0.98;;;19.80;70.40;;;;;;4974698;28;20022;-75
2022/04/02 09:30:06;;;;;;;0.63;0.30;;;20.60;68.40;;;;;;4976354;28;20031;-76
2022/04/02 09:33:07;;;;;;;0.20;0.20;;;21.00;69.00;;;;;;4976227;28;20023;-76
2022/04/02 09:35:41;;;;;;;0.45;0.45;;;20.90;68.60;;;;;;4976433;28;20035;-75
2022/04/02 09:38:13;;;;;;;0.10;0.10;;;19.10;70.80;;;;;;4975990;28;20026;-74
2022/04/02 09:40:48;;;;;;;0.00;0.00;;;18.70;71.80;;;;;;4976240;28;20023;-75
2022/04/02 09:43:45;;;;;;;1.65;0.35;;;18.60;70.80;;;;;;4976433;28;20026;-75
2022/04/02 09:46:52;;;;;;;3.60;0.15;;;18.20;70.10;;;;;;4975609;28;20097;-74
2022/04/02 09:49:51;;;;;;;1.45;0.20;;;16.60;73.00;;;;;;4975790;28;20027;-75
2022/04/02 09:52:25;;;;;;;0.85;0.77;;;15.50;72.80;;;;;;4968384;28;20039;-74
2022/04/02 09:55:26;;;;;;;0.75;0.47;;;16.70;74.50;;;;;;4975619;28;20057;-76
2022/04/02 09:58:17;;;;;;;1.17;0.70;;;17.30;71.00;;;;;;4964613;28;20047;-74
2022/04/02 10:01:05;;;;;;;0.40;0.20;;;16.00;71.70;;;;;;4974287;28;20079;-75
2022/04/02 10:03:45;;;;;;;2.45;0.30;;;14.50;75.20;;;;;;4974888;28;20458;-74
2022/04/02 10:06:20;;;;;;;0.10;0.10;;;14.10;76.80;;;;;;4976066;28;20019;-74
2022/04/02 10:09:06;;;;;;;0.00;0.00;;;13.80;78.90;;;;;;4975624;28;20461;-75
2022/04/02 10:11:34;;;;;;;0.20;0.20;;;13.90;78.30;;;;;;4975816;28;20015;-75
2022/04/02 10:14:03;;;;;;;0.00;0.00;;;13.80;76.50;;;;;;4975021;28;20037;-75
2022/04/02 10:16:30;;;;;;;1.83;0.47;;;14.20;76.00;;;;;;4975890;28;20023;-75
2022/04/02 10:18:58;;;;;;;1.15;1.08;;;15.50;75.90;;;;;;4975133;28;20027;-76
2022/04/02 10:21:24;;;;;;;0.05;0.05;;;16.60;75.30;;;;;;4975321;28;20077;-75
2022/04/02 10:24:05;;;;;;;0.00;0.00;;;16.50;73.80;;;;;;4975437;28;20067;-74
2022/04/02 10:26:38;;;;;;;0.05;0.05;;;15.50;75.60;;;;;;4979205;28;20023;-75
2022/04/02 10:29:11;;;;;;;0.68;0.68;;;15.00;73.90;;;;;;4975510;28;20023;-75
2022/04/02 10:31:58;;;;;;;0.10;0.10;;;15.70;76.00;;;;;;4975416;28;20046;-74
2022/04/02 10:34:39;;;;;;;0.20;0.20;;;15.50;73.70;;;;;;4974592;28;20085;-75
2022/04/02 10:37:27;;;;;;;0.00;0.00;;;15.90;74.60;;;;;;4974970;28;20031;-74
2022/04/02 10:39:56;;;;;;;0.00;0.00;;;14.70;74.10;;;;;;4973661;28;20402;-76
2022/04/02 10:42:32;;;;;;;0.00;0.00;;;13.10;74.00;;;;;;4975340;28;20062;-75
2022/04/02 10:44:59;;;;;;;3.15;1.42;;;11.80;75.50;;;;;;4975172;28;20035;-76
2022/04/02 10:47:28;;;;;;;0.00;0.00;;;11.40;76.00;;;;;;4974953;28;20101;-74
2022/04/02 10:50:02;;;;;;;0.05;0.05;;;11.50;78.10;;;;;;4974882;28;20031;-75
2022/04/02 10:52:28;;;;;;;0.30;0.30;;;12.60;77.80;;;;;;4974460;28;20023;-75
2022/04/02 10:54:55;;;;;;;4.68;0.28;;;13.60;77.70;;;;;;4974306;28;20145;-75
2022/04/02 10:57:21;;;;;;;0.00;0.00;;;13.10;73.40;;;;;;4975155;28;20155;-74
2022/04/02 10:59:50;;;;;;;0.10;0.10;;;12.80;74.00;;;;;;4974031;28;20022;-75
2022/04/02 11:02:23;;;;;;;0.00;0.00;;;12.20;75.40;;;;;;4974685;28;20061;-74
2022/04/02 11:04:58;;;;;;;1.77;0.45;;;12.70;73.30;;;;;;4974661;28;20446;-75
2022/04/02 11:07:29;;;;;;;0.00;0.00;;;12.40;74.40;;;;;;4974928;28;20106;-75
2022/04/02 11:09:56;;;;;;;0.00;0.00;;;13.00;74.90;;;;;;4973095;28;20031;-74
2022/04/02 11:12:28;;;;;;;0.57;0.57;;;12.80;74.10;;;;;;4973667;28;20486;-74
2022/04/02 11:15:07;;;;;;;0.57;0.47;;;13.30;77.70;;;;;;4974632;28;20031;-75
2022/04/02 11:17:41;;;;;;;0.00;0.00;;;13.80;72.90;;;;;;4974360;28;20262;-74
2022/04/02 11:20:17;;;;;;;0.10;0.10;;;13.90;77.20;;;;;;4972832;28;20402;-75
2022/04/02 11:22:54;;;;;;;0.28;0.28;;;13.20;74.30;;;;;;4970134;28;20113;-75
2022/04/02 11:25:19;;;;;;;0.15;0.15;;;12.80;74.00;;;;;;4955304;28;20498;-74
2022/04/02 11:27:49;;;;;;;0.00;0.00;;;12.90;73.70;;;;;;4954907;28;20024;-75
2022/04/02 11:30:17;;;;;;;0.00;0.00;;;13.10;76.70;;;;;;4954527;28;20031;-74
2022/04/02 11:32:45;;;;;;;0.25;0.25;;;13.40;73.60;;;;;;4954849;28;20386;-74
2022/04/02 11:35:24;;;;;;;0.10;0.10;;;12.70;75.10;;;;;;4954860;28;20110;-74
2022/04/02 11:38:17;;;;;;;0.98;0.47;;;12.60;75.70;;;;;;4966131;28;20054;-74
2022/04/02 11:40:49;;;;;;;0.00;0.00;;;13.00;75.90;;;;;;4974215;28;20510;-74
2022/04/02 11:43:17;;;;;;;0.00;0.00;;;13.30;74.80;;;;;;4974482;28;20046;-74
2022/04/02 11:45:45;;;;;;;0.00;0.00;;;13.00;69.70;;;;;;4974214;28;20042;-74
2022/04/02 11:48:13;;;;;;;0.00;0.00;;;13.50;73.50;;;;;;4973059;28;20054;-74
2022/04/02 11:50:44;;;;;;;0.00;0.00;;;13.20;75.20;;;;;;4974278;28;20034;-74
2022/04/02 11:53:12;;;;;;;0.20;0.17;;;12.70;77.00;;;;;;4973998;28;20026;-75
2022/04/02 11:55:39;;;;;;;1.42;0.80;;;12.40;74.60;;;;;;4972307;28;20065;-74
2022/04/02 11:58:10;;;;;;;0.00;0.00;;;12.30;78.30;;;;;;4974143;28;20037;-74
2022/04/02 12:00:38;;;;;;;0.43;0.40;;;12.50;77.60;;;;;;4973323;28;20479;-74
2022/04/02 12:03:19;;;;;;;0.00;0.00;;;12.70;77.20;;;;;;4973510;28;20031;-74
2022/04/02 12:05:47;;;;;;;0.00;0.00;;;12.60;72.20;;;;;;4977278;28;20031;-75
2022/04/02 12:08:26;;;;;;;0.00;0.00;;;12.80;73.60;;;;;;4976728;28;20394;-74
2022/04/02 12:10:52;;;;;;;0.05;0.05;;;13.00;71.90;;;;;;4977619;28;20109;-74
2022/04/02 12:13:18;;;;;;;0.10;0.10;;;13.00;74.40;;;;;;4977878;28;20114;-74
2022/04/02 12:16:01;;;;;;;0.00;0.00;;;13.10;74.40;;;;;;4977724;28;20031;-74
2022/04/02 12:18:29;;;;;;;0.05;0.03;;;12.90;74.90;;;;;;4977273;28;20031;-74
2022/04/02 12:21:03;;;;;;;0.00;0.00;;;12.10;75.90;;;;;;4969835;28;20028;-74
2022/04/02 12:23:30;;;;;;;3.55;1.38;;;11.30;77.60;;;;;;4957774;28;20034;-73
2022/04/02 12:25:58;;;;;;;0.60;0.60;;;11.30;79.90;;;;;;4958212;28;20483;-74
2022/04/02 12:28:24;;;;;;;0.28;0.10;;;12.00;79.60;;;;;;4958403;28;20431;-74
2022/04/02 12:30:52;;;;;;;0.00;0.00;;;12.70;75.40;;;;;;4958211;28;20034;-74
2022/04/02 12:33:20;;;;;;;0.00;0.00;;;13.30;74.50;;;;;;4972677;28;20038;-74
2022/04/02 12:36:00;;;;;;;0.10;0.00;;;12.80;72.30;;;;;;4958154;28;20034;-75
2022/04/02 12:38:31;;;;;;;0.00;0.00;;;12.30;74.80;;;;;;4973901;28;20026;-74
2022/04/02 12:40:58;;;;;;;0.00;0.00;;;12.40;77.90;;;;;;4977519;28;20508;-74
2022/04/02 12:43:32;;;;;;;0.00;0.00;;;12.90;74.70;;;;;;4977590;28;20022;-74
2022/04/02 12:46:00;;;;;;;0.22;0.22;;;12.90;74.40;;;;;;4977165;28;20398;-74
2022/04/02 12:48:26;;;;;;;0.03;0.03;;;12.40;75.90;;;;;;4976844;28;20018;-74
2022/04/02 12:50:59;;;;;;;0.00;0.00;;;12.10;75.90;;;;;;4976130;28;20067;-75
2022/04/02 12:53:34;;;;;;;0.00;0.00;;;12.60;77.30;;;;;;4976902;28;20029;-74
2022/04/02 12:56:02;;;;;;;3.10;0.08;;;12.90;75.00;;;;;;4975354;28;20051;-75
2022/04/02 12:58:36;;;;;;;0.75;0.10;;;13.20;72.30;;;;;;4976531;28;20034;-74
2022/04/02 13:01:33;;;;;;;0.10;0.00;;;12.30;73.10;;;;;;4976210;28;20035;-74
2022/04/02 13:03:59;;;;;;;0.00;0.00;;;11.80;75.10;;;;;;4976522;28;20057;-74
2022/04/02 13:06:27;;;;;;;0.00;0.00;;;11.50;76.00;;;;;;4976976;28;20451;-74
2022/04/02 13:08:59;;;;;;;0.00;0.00;;;11.20;76.60;;;;;;4976996;28;20486;-74
2022/04/02 13:11:31;;;;;;;0.00;0.00;;;11.80;78.70;;;;;;4976651;28;20105;-74